Time;durP1;ratioP1;P1;durP2;ratioP2;P2;SDS_P1;SDS_P2;PMS_P1;PMS_P2;Temp;Humidity;BMP_temperature;BMP_pressure;BME280_temperature;BME280_humidity;BME280_pressure;Samples;Min_cycle;Max_cycle;Signal;HPM_P1;HPM_P2
2021/10/19 00:01:49;;;;;;;;;;;14.20;99.90;;;;;;8321813;28;19928;-72
2021/10/19 00:05:51;;;;;;;;;;;14.20;99.90;;;;;;8326486;28;20375;-73
2021/10/19 00:09:52;;;;;;;;;;;14.20;99.90;;;;;;8326586;28;19924;-73
2021/10/19 00:13:54;;;;;;;;;;;14.20;99.90;;;;;;8329532;28;19921;-72
2021/10/19 00:17:56;;;;;;;;;;;14.20;99.90;;;;;;8335510;28;19921;-73
2021/10/19 00:21:57;;;;;;;;;;;14.20;99.90;;;;;;8321927;28;19927;-73
2021/10/19 00:25:59;;;;;;;;;;;14.20;99.90;;;;;;8321033;28;19928;-72
2021/10/19 00:30:02;;;;;;;;;;;14.10;99.90;;;;;;8328233;28;19979;-73
2021/10/19 00:34:03;;;;;;;;;;;14.10;99.90;;;;;;8323966;28;19972;-72
2021/10/19 00:38:05;;;;;;;;;;;14.10;99.90;;;;;;8324429;28;19932;-73
2021/10/19 00:42:07;;;;;;;;;;;14.10;99.90;;;;;;8331554;28;19944;-72
2021/10/19 00:46:14;;;;;;;;;;;14.10;99.90;;;;;;8326820;28;19943;-72
2021/10/19 00:50:16;;;;;;;;;;;14.10;99.90;;;;;;8326284;28;19975;-72
2021/10/19 00:54:24;;;;;;;;;;;14.10;99.90;;;;;;8324609;28;19943;-73
2021/10/19 00:58:26;;;;;;;;;;;14.10;99.90;;;;;;8324601;28;19928;-72
2021/10/19 01:02:27;;;;;;;;;;;14.10;99.90;;;;;;8322921;28;19936;-73
2021/10/19 01:06:29;;;;;;;;;;;14.10;99.90;;;;;;8324655;28;20381;-73
2021/10/19 01:10:31;;;;;;;;;;;14.10;99.90;;;;;;8326325;28;19974;-73
2021/10/19 01:14:33;;;;;;;;;;;14.10;99.90;;;;;;8327315;28;20059;-72
2021/10/19 01:18:35;;;;;;;;;;;14.10;99.90;;;;;;8324210;28;19987;-71
2021/10/19 01:22:37;;;;;;;;;;;14.10;99.90;;;;;;8315547;28;19932;-72
2021/10/19 01:26:38;;;;;;;;;;;14.20;99.90;;;;;;8318231;28;19928;-72
2021/10/19 01:30:41;;;;;;;;;;;14.20;99.90;;;;;;8322577;28;19929;-73
2021/10/19 01:34:43;;;;;;;;;;;14.20;99.90;;;;;;8317062;28;19963;-72
2021/10/19 01:38:45;;;;;;;;;;;14.20;99.90;;;;;;8317822;28;19928;-72
2021/10/19 01:42:47;;;;;;;;;;;14.20;99.90;;;;;;8324506;28;20455;-72
2021/10/19 01:46:49;;;;;;;;;;;14.20;99.90;;;;;;8317210;28;20340;-73
2021/10/19 01:50:50;;;;;;;;;;;14.20;99.90;;;;;;8325288;28;19921;-72
2021/10/19 01:54:52;;;;;;;;;;;14.20;99.90;;;;;;8317891;28;20000;-73
2021/10/19 01:58:54;;;;;;;;;;;14.20;99.90;;;;;;8328652;28;19928;-73
2021/10/19 02:02:55;;;;;;;;;;;14.20;99.90;;;;;;8319605;28;19950;-72
2021/10/19 02:06:57;;;;;;;;;;;14.20;99.90;;;;;;8324723;28;19927;-73
2021/10/19 02:10:59;;;;;;;;;;;14.20;99.90;;;;;;8327026;28;19921;-72
2021/10/19 02:15:00;;;;;;;;;;;14.20;99.90;;;;;;8327244;28;20357;-72
2021/10/19 02:19:02;;;;;;;;;;;14.20;99.90;;;;;;8330254;28;19921;-72
2021/10/19 02:23:04;;;;;;;;;;;14.30;99.90;;;;;;8322483;28;19986;-72
2021/10/19 02:27:06;;;;;;;;;;;14.30;99.90;;;;;;8329966;28;19932;-73
2021/10/19 02:31:10;;;;;;;;;;;14.30;99.90;;;;;;8331282;28;19944;-72
2021/10/19 02:35:13;;;;;;;;;;;14.30;99.90;;;;;;8322520;28;19921;-72
2021/10/19 02:39:15;;;;;;;;;;;14.30;99.90;;;;;;8327175;28;19929;-72
2021/10/19 02:43:17;;;;;;;;;;;14.40;99.90;;;;;;8330787;28;19964;-73
2021/10/19 02:47:19;;;;;;;;;;;14.40;99.90;;;;;;8329248;28;19921;-73
2021/10/19 02:51:20;;;;;;;;;;;14.40;99.90;;;;;;8325522;28;19967;-73
2021/10/19 02:55:22;;;;;;;;;;;14.40;99.90;;;;;;8343722;28;19921;-72
2021/10/19 02:59:23;;;;;;;;;;;14.40;99.90;;;;;;8347580;28;19921;-72
2021/10/19 03:03:25;;;;;;;;;;;14.40;99.90;;;;;;8330797;28;19929;-73
2021/10/19 03:07:27;;;;;;;;;;;14.50;99.90;;;;;;8317812;28;19947;-72
2021/10/19 03:11:29;;;;;;;;;;;14.50;99.90;;;;;;8327319;28;19930;-73
2021/10/19 03:15:31;;;;;;;;;;;14.50;99.90;;;;;;8332567;28;19928;-72
2021/10/19 03:19:32;;;;;;;;;;;14.50;99.90;;;;;;8326628;28;19961;-73
2021/10/19 03:23:34;;;;;;;;;;;14.60;99.90;;;;;;8348434;28;19996;-73
2021/10/19 03:27:36;;;;;;;;;;;14.60;99.90;;;;;;8320811;28;20281;-72
2021/10/19 03:31:37;;;;;;;;;;;14.60;99.90;;;;;;8330979;28;19943;-72
2021/10/19 03:35:39;;;;;;;;;;;14.60;99.90;;;;;;8321221;28;20582;-72
2021/10/19 03:39:41;;;;;;;;;;;14.60;99.90;;;;;;8329533;28;20379;-73
2021/10/19 03:43:42;;;;;;;;;;;14.60;99.90;;;;;;8330748;28;19996;-72
2021/10/19 03:47:44;;;;;;;;;;;14.70;99.90;;;;;;8328163;28;19935;-72
2021/10/19 03:51:46;;;;;;;;;;;14.70;99.90;;;;;;8331866;28;20376;-73
2021/10/19 03:55:48;;;;;;;;;;;14.60;99.90;;;;;;8338012;28;19929;-72
2021/10/19 04:04:53;;;;;;;;;;;14.60;99.90;;;;;;8320280;28;19936;-73
2021/10/19 04:08:55;;;;;;;;;;;14.60;99.90;;;;;;8323915;28;19921;-73
2021/10/19 04:12:56;;;;;;;;;;;14.70;99.90;;;;;;8326524;28;19944;-73
2021/10/19 04:17:01;;;;;;;;;;;14.60;99.90;;;;;;8324927;28;19925;-73
2021/10/19 04:21:03;;;;;;;;;;;14.70;99.90;;;;;;8315772;28;19928;-73
2021/10/19 04:25:05;;;;;;;;;;;14.70;99.90;;;;;;8322649;28;19933;-72
2021/10/19 04:29:07;;;;;;;;;;;14.70;99.90;;;;;;8344843;28;19921;-73
2021/10/19 04:33:08;;;;;;;;;;;14.70;99.90;;;;;;8323594;28;19932;-73
2021/10/19 04:37:10;;;;;;;;;;;14.70;99.90;;;;;;8344066;28;19944;-73
2021/10/19 04:41:12;;;;;;;;;;;14.70;99.90;;;;;;8328632;28;19925;-73
2021/10/19 04:45:16;;;;;;;;;;;14.70;99.90;;;;;;8321715;28;20304;-73
2021/10/19 04:49:18;;;;;;;;;;;14.70;99.90;;;;;;8320076;28;20054;-73
2021/10/19 04:53:19;;;;;;;;;;;14.70;99.90;;;;;;8317101;28;20361;-73
2021/10/19 04:57:22;;;;;;;;;;;14.70;99.90;;;;;;8320483;28;20000;-72
2021/10/19 05:01:23;;;;;;;;;;;14.80;99.90;;;;;;8325230;28;19921;-73
2021/10/19 05:05:25;;;;;;;;;;;14.80;99.90;;;;;;8322068;28;19925;-73
2021/10/19 05:09:27;;;;;;;;;;;14.80;99.90;;;;;;8324157;28;19975;-74
2021/10/19 05:13:28;;;;;;;;;;;14.80;99.90;;;;;;8324328;28;19921;-73
2021/10/19 05:17:30;;;;;;;;;;;14.80;99.90;;;;;;8320892;28;19933;-73
2021/10/19 05:21:32;;;;;;;;;;;14.80;99.90;;;;;;8319368;28;19925;-73
2021/10/19 05:25:33;;;;;;;;;;;14.80;99.90;;;;;;8325345;28;19932;-72
2021/10/19 05:29:35;;;;;;;;;;;14.80;99.90;;;;;;8324342;28;19936;-73
2021/10/19 05:33:37;;;;;;;;;;;14.80;99.90;;;;;;8322819;28;20352;-73
2021/10/19 05:37:38;;;;;;;;;;;14.80;99.90;;;;;;8354793;28;19921;-74
2021/10/19 05:41:40;;;;;;;;;;;14.80;99.90;;;;;;8319977;28;19921;-73
2021/10/19 05:45:42;;;;;;;;;;;14.80;99.90;;;;;;8326631;28;19924;-72
2021/10/19 05:49:44;;;;;;;;;;;14.80;99.90;;;;;;8322966;28;19972;-73
2021/10/19 05:53:45;;;;;;;;;;;14.80;99.90;;;;;;8331694;28;20225;-73
2021/10/19 05:57:47;;;;;;;;;;;14.90;99.90;;;;;;8324211;28;20342;-72
2021/10/19 06:01:49;;;;;;;;;;;14.80;99.90;;;;;;8356644;28;19921;-73
2021/10/19 06:05:51;;;;;;;;;;;14.90;99.90;;;;;;8320278;28;19920;-73
2021/10/19 06:09:52;;;;;;;;;;;14.90;99.90;;;;;;8321269;28;19991;-73
2021/10/19 06:13:54;;;;;;;;;;;14.90;99.90;;;;;;8322472;28;19921;-73
2021/10/19 06:17:56;;;;;;;;;;;14.90;99.90;;;;;;8317294;28;20261;-73
2021/10/19 06:21:57;;;;;;;;;;;14.90;99.90;;;;;;8316052;28;19928;-75
2021/10/19 06:25:59;;;;;;;;;;;14.90;99.90;;;;;;8343613;28;19921;-73
2021/10/19 06:30:03;;;;;;;20.70;14.75;;;14.90;99.90;;;;;;8322022;28;19925;-73
2021/10/19 06:34:05;;;;;;;18.75;12.73;;;14.90;99.90;;;;;;8316789;28;20041;-73
2021/10/19 06:38:07;;;;;;;17.50;12.82;;;14.90;99.90;;;;;;8323966;28;20050;-73
2021/10/19 06:42:09;;;;;;;22.42;15.52;;;15.00;99.90;;;;;;8311283;28;20412;-74
2021/10/19 06:46:11;;;;;;;;;;;15.00;99.90;;;;;;8318674;28;20049;-73
2021/10/19 06:50:13;;;;;;;;;;;15.00;99.90;;;;;;8323994;28;20265;-73
2021/10/19 06:54:14;;;;;;;;;;;15.00;99.90;;;;;;8334421;28;19936;-73
2021/10/19 06:58:16;;;;;;;;;;;15.10;99.90;;;;;;8325003;28;19921;-73
2021/10/19 07:02:18;;;;;;;;;;;15.10;99.90;;;;;;8322387;28;19925;-73
2021/10/19 07:06:20;;;;;;;;;;;15.10;99.90;;;;;;8325862;28;19921;-73
2021/10/19 07:10:22;;;;;;;;;;;15.20;99.90;;;;;;8355631;28;19921;-73
2021/10/19 07:14:24;;;;;;;;;;;15.20;99.90;;;;;;8328848;28;19929;-73
2021/10/19 07:18:26;;;;;;;;;;;15.20;99.90;;;;;;8319267;28;19932;-73
2021/10/19 07:22:30;;;;;;;;;;;15.30;99.90;;;;;;8329097;28;19921;-73
2021/10/19 07:26:33;;;;;;;;;;;15.30;99.90;;;;;;8368381;28;20103;-74
2021/10/19 07:30:34;;;;;;;;;;;15.30;99.90;;;;;;8332361;28;20288;-73
2021/10/19 07:34:36;;;;;;;;;;;15.30;99.90;;;;;;8334344;28;20032;-73
2021/10/19 07:38:38;;;;;;;;;;;15.30;99.90;;;;;;8326766;28;19921;-73
2021/10/19 07:42:40;;;;;;;;;;;15.30;99.90;;;;;;8323776;28;20157;-73
2021/10/19 07:46:41;;;;;;;;;;;15.40;99.90;;;;;;8324323;28;19961;-73
2021/10/19 07:50:47;;;;;;;;;;;15.40;99.90;;;;;;8328055;28;20054;-73
2021/10/19 07:54:48;;;;;;;;;;;15.50;99.90;;;;;;8323437;28;19947;-73
2021/10/19 07:58:50;;;;;;;;;;;15.50;99.90;;;;;;8322329;28;20395;-73
2021/10/19 08:02:52;;;;;;;;;;;15.50;99.90;;;;;;8325051;28;19983;-73
2021/10/19 08:06:54;;;;;;;;;;;15.60;99.90;;;;;;8323081;28;20265;-73
2021/10/19 08:10:56;;;;;;;;;;;15.60;99.90;;;;;;8326788;28;19944;-74
2021/10/19 08:15:01;;;;;;;;;;;15.70;99.90;;;;;;8322962;28;19924;-73
2021/10/19 08:19:02;;;;;;;;;;;15.70;99.90;;;;;;8315278;28;19929;-73
2021/10/19 08:23:05;;;;;;;;;;;15.70;99.90;;;;;;8317172;28;20364;-73
2021/10/19 08:27:06;;;;;;;;;;;15.80;99.90;;;;;;8327823;28;19922;-73
2021/10/19 08:31:10;;;;;;;;;;;15.80;99.90;;;;;;8343071;28;19928;-73
2021/10/19 08:35:12;;;;;;;;;;;15.80;99.90;;;;;;8319604;28;20060;-74
2021/10/19 08:39:14;;;;;;;;;;;15.90;99.90;;;;;;8319991;28;20376;-73
2021/10/19 08:43:19;;;;;;;;;;;15.90;99.90;;;;;;8329831;28;19921;-73
2021/10/19 08:47:22;;;;;;;;;;;16.00;99.90;;;;;;8323595;28;20297;-73
2021/10/19 08:51:24;;;;;;;;;;;16.00;99.90;;;;;;8325859;28;19929;-73
2021/10/19 08:55:25;;;;;;;;;;;16.00;99.90;;;;;;8327771;28;19924;-73
2021/10/19 08:59:28;;;;;;;;;;;16.10;99.90;;;;;;8317686;28;20300;-73
2021/10/19 09:03:31;;;;;;;;;;;16.10;99.90;;;;;;8322616;28;19925;-73
2021/10/19 09:07:32;;;;;;;;;;;16.20;99.90;;;;;;8321340;28;19921;-73
2021/10/19 09:11:41;;;;;;;;;;;16.20;99.90;;;;;;8327109;28;19929;-74
2021/10/19 09:15:44;;;;;;;;;;;16.20;99.90;;;;;;8321149;28;19924;-73
2021/10/19 09:19:47;;;;;;;;;;;16.30;99.90;;;;;;8319738;28;19965;-73
2021/10/19 09:23:50;;;;;;;;;;;16.30;99.90;;;;;;8320066;28;19925;-73
2021/10/19 09:27:52;;;;;;;;;;;16.30;99.90;;;;;;8317628;28;19932;-73
2021/10/19 09:31:55;;;;;;;;;;;16.30;99.90;;;;;;8325032;28;19921;-73
2021/10/19 09:36:00;;;;;;;;;;;16.30;99.90;;;;;;8335435;28;19920;-73
2021/10/19 09:40:08;;;;;;;;;;;16.40;99.90;;;;;;8322523;28;20226;-73
2021/10/19 09:44:11;;;;;;;;;;;16.40;99.90;;;;;;8323908;28;19921;-72
2021/10/19 09:48:16;;;;;;;;;;;16.40;99.90;;;;;;8324466;28;20350;-73
2021/10/19 09:52:18;;;;;;;;;;;16.40;99.90;;;;;;8337879;28;19935;-73
2021/10/19 09:56:20;;;;;;;;;;;16.40;99.90;;;;;;8327820;28;19932;-73
2021/10/19 10:00:27;;;;;;;;;;;16.40;99.90;;;;;;8316014;28;19928;-73
2021/10/19 10:04:29;;;;;;;;;;;16.50;99.90;;;;;;8343013;28;19921;-73
2021/10/19 10:08:31;;;;;;;;;;;16.50;99.90;;;;;;8347651;28;20243;-73
2021/10/19 10:12:33;;;;;;;;;;;16.50;99.90;;;;;;8315727;28;19936;-74
2021/10/19 10:16:49;;;;;;;;;;;16.50;99.90;;;;;;8318083;28;19921;-73
2021/10/19 10:20:50;;;;;;;;;;;16.60;99.90;;;;;;8328780;28;20443;-73
2021/10/19 10:25:08;;;;;;;;;;;16.60;99.90;;;;;;8307152;28;19928;-72
2021/10/19 10:29:11;;;;;;;;;;;16.60;99.90;;;;;;8321348;28;19924;-72
2021/10/19 10:33:12;;;;;;;;;;;16.70;99.90;;;;;;8332166;28;20273;-73
2021/10/19 10:37:14;;;;;;;;;;;16.70;99.90;;;;;;8326846;28;19925;-73
2021/10/19 10:41:16;;;;;;;;;;;16.80;99.90;;;;;;8319363;28;20226;-73
2021/10/19 10:45:31;;;;;;;;;;;16.80;99.90;;;;;;8349069;28;19972;-73
2021/10/19 10:49:33;;;;;;;;;;;16.90;99.90;;;;;;8324449;28;19968;-73
2021/10/19 10:53:39;;;;;;;;;;;16.90;99.90;;;;;;8328123;28;19967;-73
2021/10/19 10:57:42;;;;;;;;;;;16.90;99.90;;;;;;8328541;28;19983;-73
2021/10/19 11:01:44;;;;;;;;;;;17.00;99.90;;;;;;8326694;28;19932;-73
2021/10/19 11:05:51;;;;;;;;;;;17.00;99.90;;;;;;8330740;28;20382;-73
2021/10/19 11:09:53;;;;;;;;;;;17.00;99.90;;;;;;8329648;28;19920;-73
2021/10/19 11:13:58;;;;;;;;;;;17.10;99.90;;;;;;8326696;28;20270;-73
2021/10/19 11:18:03;;;;;;;;;;;17.10;99.90;;;;;;8327239;28;20395;-73
2021/10/19 11:22:06;;;;;;;;;;;17.20;99.90;;;;;;8328266;28;19929;-73
2021/10/19 11:26:09;;;;;;;;;;;17.20;99.90;;;;;;8317324;28;19929;-73
2021/10/19 11:30:11;;;;;;;;;;;17.20;99.90;;;;;;8315052;28;19928;-73
2021/10/19 11:34:14;;;;;;;;;;;17.30;99.90;;;;;;8324345;28;19975;-73
2021/10/19 11:38:16;;;;;;;;;;;17.30;99.90;;;;;;8321781;28;19928;-72
2021/10/19 11:42:17;;;;;;;;;;;17.40;99.90;;;;;;8314420;28;19968;-73
2021/10/19 11:46:21;;;;;;;;;;;17.40;99.90;;;;;;8323016;28;20297;-73
2021/10/19 11:50:25;;;;;;;;;;;17.40;99.90;;;;;;8315379;28;19928;-73
2021/10/19 11:54:30;;;;;;;37.30;20.85;;;17.40;99.90;;;;;;8310638;28;19933;-73
2021/10/19 11:58:32;;;;;;;26.50;17.92;;;17.50;99.90;;;;;;8318997;28;20069;-73
2021/10/19 12:02:34;;;;;;;;;;;17.50;99.90;;;;;;8316423;28;20045;-72
2021/10/19 12:06:39;;;;;;;;;;;17.50;99.90;;;;;;8333779;28;19933;-73
2021/10/19 12:10:46;;;;;;;;;;;17.50;99.90;;;;;;8342577;28;19928;-73
2021/10/19 12:14:47;;;;;;;33.08;19.48;;;17.60;99.90;;;;;;8327794;28;19932;-73
2021/10/19 12:18:49;;;;;;;32.10;20.17;;;17.60;99.90;;;;;;8327713;28;20046;-74
2021/10/19 12:22:56;;;;;;;26.63;17.77;;;17.70;99.90;;;;;;8330552;28;20053;-73
2021/10/19 12:27:13;;;;;;;;;;;17.80;99.90;;;;;;8330442;28;20054;-73
2021/10/19 12:31:15;;;;;;;24.67;16.55;;;17.80;99.90;;;;;;8337478;28;20031;-73
2021/10/19 12:35:17;;;;;;;27.95;17.95;;;17.80;99.90;;;;;;8324368;28;20397;-73
2021/10/19 12:39:20;;;;;;;28.17;18.33;;;17.90;99.90;;;;;;8314568;28;20563;-73
2021/10/19 12:43:21;;;;;;;;;;;17.90;99.90;;;;;;8316025;28;20274;-73
2021/10/19 12:47:35;;;;;;;;;;;17.90;99.90;;;;;;8318494;28;20268;-73
2021/10/19 12:51:37;;;;;;;;;;;17.90;99.90;;;;;;8320646;28;19920;-73
2021/10/19 12:55:39;;;;;;;;;;;17.90;99.90;;;;;;8316182;28;19920;-73
2021/10/19 12:59:41;;;;;;;;;;;17.90;99.90;;;;;;8313427;28;20368;-73
2021/10/19 13:03:43;;;;;;;;;;;17.90;99.90;;;;;;8319362;28;19939;-72
2021/10/19 13:07:45;;;;;;;;;;;18.00;99.90;;;;;;8320385;28;19921;-73
2021/10/19 13:11:47;;;;;;;;;;;18.10;99.90;;;;;;8314763;28;20388;-73
2021/10/19 13:15:48;;;;;;;;;;;18.20;99.90;;;;;;8317119;28;19925;-73
2021/10/19 13:19:59;;;;;;;;;;;18.20;99.90;;;;;;8313865;28;19956;-73
2021/10/19 13:24:01;;;;;;;;;;;18.20;99.90;;;;;;8341633;28;20389;-73
2021/10/19 13:28:03;;;;;;;;;;;18.20;99.90;;;;;;8331252;28;24087;-73
2021/10/19 13:32:05;;;;;;;;;;;18.30;99.90;;;;;;8316409;28;19921;-73
2021/10/19 13:36:06;;;;;;;;;;;18.30;99.90;;;;;;8356143;28;19925;-73
2021/10/19 13:40:10;;;;;;;;;;;18.30;99.90;;;;;;8316085;28;22313;-73
2021/10/19 13:44:12;;;;;;;;;;;18.40;99.90;;;;;;8320155;28;19936;-73
2021/10/19 13:48:13;;;;;;;;;;;18.40;99.90;;;;;;8319236;28;20313;-73
2021/10/19 13:52:15;;;;;;;;;;;18.50;99.90;;;;;;8323026;28;19921;-73
2021/10/19 13:56:18;;;;;;;;;;;18.70;99.90;;;;;;8319599;28;19929;-73
2021/10/19 14:00:20;;;;;;;;;;;18.90;99.90;;;;;;8323175;28;19932;-73
2021/10/19 14:04:21;;;;;;;;;;;18.90;99.90;;;;;;8321375;28;19925;-73
2021/10/19 14:08:23;;;;;;;;;;;18.80;99.90;;;;;;8316809;28;20317;-73
2021/10/19 14:12:24;;;;;;;;;;;18.80;99.90;;;;;;8321422;28;19971;-73
2021/10/19 14:16:27;;;;;;;;;;;18.70;99.90;;;;;;8324126;28;20296;-73
2021/10/19 14:20:29;;;;;;;;;;;18.70;99.90;;;;;;8319755;28;19975;-73
2021/10/19 14:24:31;;;;;;;;;;;18.70;99.90;;;;;;8314255;28;19921;-74
2021/10/19 14:28:33;;;;;;;;;;;18.60;99.90;;;;;;8321259;28;19925;-73
2021/10/19 14:32:35;;;;;;;;;;;18.60;99.90;;;;;;8325431;28;20070;-73
2021/10/19 14:36:41;;;;;;;;;;;18.60;99.90;;;;;;8319554;28;19975;-73
2021/10/19 14:40:42;;;;;;;;;;;18.70;99.90;;;;;;8328108;28;19921;-73
2021/10/19 14:44:44;;;;;;;;;;;18.70;99.90;;;;;;8319495;28;19944;-73
2021/10/19 14:48:46;;;;;;;;;;;18.80;99.90;;;;;;8327918;28;19921;-73
2021/10/19 14:52:48;;;;;;;;;;;19.00;99.90;;;;;;8326237;28;19979;-74
2021/10/19 14:56:49;;;;;;;;;;;19.00;99.90;;;;;;8321769;28;19944;-73
2021/10/19 15:00:51;;;;;;;;;;;19.00;99.90;;;;;;8306787;28;19921;-73
2021/10/19 15:04:53;;;;;;;;;;;19.00;99.90;;;;;;8317973;28;19996;-73
2021/10/19 15:08:55;;;;;;;;;;;19.00;99.90;;;;;;8318212;28;19936;-73
2021/10/19 15:12:56;;;;;;;;;;;19.00;99.90;;;;;;8320434;28;19929;-73
2021/10/19 15:16:58;;;;;;;;;;;19.00;99.90;;;;;;8338396;28;19928;-73
2021/10/19 15:21:01;;;;;;;;;;;19.00;99.90;;;;;;8331057;28;19921;-73
2021/10/19 15:25:04;;;;;;;;;;;18.90;99.90;;;;;;8341093;28;19925;-72
2021/10/19 15:29:05;;;;;;;;;;;18.90;99.90;;;;;;8323392;28;19921;-73
2021/10/19 15:33:07;;;;;;;;;;;18.80;99.90;;;;;;8337888;28;20411;-73
2021/10/19 15:37:09;;;;;;;;;;;18.70;99.90;;;;;;8341515;28;19928;-73
2021/10/19 15:41:11;;;;;;;;;;;18.60;99.90;;;;;;8315268;28;19991;-73
2021/10/19 15:45:14;;;;;;;;;;;18.60;99.90;;;;;;8324468;28;19921;-73
2021/10/19 15:49:16;;;;;;;;;;;18.60;99.90;;;;;;8340213;28;25127;-74
2021/10/19 15:53:18;;;;;;;;;;;18.60;99.90;;;;;;8308294;28;19984;-73
2021/10/19 15:57:19;;;;;;;;;;;18.60;99.90;;;;;;8310058;28;19944;-74
2021/10/19 16:01:21;;;;;;;;;;;18.60;99.90;;;;;;8309991;28;19925;-74
2021/10/19 16:05:23;;;;;;;;;;;18.50;99.90;;;;;;8310078;28;19929;-74
2021/10/19 16:09:26;;;;;;;;;;;18.40;99.90;;;;;;8310354;28;20375;-74
2021/10/19 16:13:28;;;;;;;;;;;18.30;99.90;;;;;;8294810;28;19933;-74
2021/10/19 16:17:30;;;;;;;;;;;18.30;99.90;;;;;;8292966;28;19933;-73
2021/10/19 16:21:35;;;;;;;;;;;18.20;99.90;;;;;;8294300;28;19925;-74
2021/10/19 16:25:37;;;;;;;;;;;18.20;99.90;;;;;;8305655;28;20353;-73
2021/10/19 16:29:38;;;;;;;;;;;18.20;99.90;;;;;;8291662;28;19979;-73
2021/10/19 16:33:40;;;;;;;;;;;18.20;99.90;;;;;;8295813;28;19928;-74
2021/10/19 16:37:53;;;;;;;;;;;18.20;99.90;;;;;;8297045;28;19921;-73
2021/10/19 16:41:55;;;;;;;;;;;18.10;99.90;;;;;;8292190;28;19932;-74
2021/10/19 16:45:57;;;;;;;;;;;18.10;99.90;;;;;;8295813;28;19928;-73
2021/10/19 16:49:59;;;;;;;;;;;18.00;99.90;;;;;;8293584;28;19921;-74
2021/10/19 16:54:01;;;;;;;;;;;18.00;99.90;;;;;;8298663;28;19979;-73
2021/10/19 16:58:02;;;;;;;;;;;18.00;99.90;;;;;;8297533;28;19928;-73
2021/10/19 17:02:04;;;;;;;;;;;17.90;99.90;;;;;;8305221;28;19925;-73
2021/10/19 17:06:06;;;;;;;;;;;17.80;99.90;;;;;;8298515;28;19921;-73
2021/10/19 17:10:08;;;;;;;;;;;17.80;99.90;;;;;;8290169;28;19952;-73
2021/10/19 17:14:09;;;;;;;;;;;17.80;99.90;;;;;;8323777;28;19924;-73
2021/10/19 17:18:11;;;;;;;;;;;17.80;99.90;;;;;;8289120;28;20384;-74
2021/10/19 17:22:13;;;;;;;;;;;17.70;99.90;;;;;;8293826;28;19921;-73
2021/10/19 17:26:16;;;;;;;;;;;17.70;99.90;;;;;;8287578;28;19948;-71
2021/10/19 17:30:17;;;;;;;;;;;17.70;99.90;;;;;;8290958;28;19932;-71
2021/10/19 17:34:19;;;;;;;;;;;17.60;99.90;;;;;;8289442;28;19933;-71
2021/10/19 17:38:21;;;;;;;;;;;17.60;99.90;;;;;;8296173;28;20288;-71
2021/10/19 17:42:25;;;;;;;;;;;17.60;99.90;;;;;;8301628;28;19928;-71
2021/10/19 17:46:26;;;;;;;;;;;17.50;99.90;;;;;;8303767;28;19929;-73
2021/10/19 17:50:28;;;;;;;;;;;17.50;99.90;;;;;;8294287;28;19960;-73
2021/10/19 17:54:30;;;;;;;;;;;17.40;99.90;;;;;;8298805;28;19924;-73
2021/10/19 17:58:32;;;;;;;;;;;17.40;99.90;;;;;;8290805;28;19921;-73
2021/10/19 18:02:33;;;;;;;;;;;17.40;99.90;;;;;;8307729;28;20253;-73
2021/10/19 18:06:36;;;;;;;;;;;17.40;99.90;;;;;;8285958;28;19925;-73
2021/10/19 18:10:38;;;;;;;;;;;17.40;99.90;;;;;;8303948;28;19997;-74
2021/10/19 18:14:42;;;;;;;;;;;17.40;99.90;;;;;;8291814;28;19924;-73
2021/10/19 18:18:44;;;;;;;;;;;17.40;99.90;;;;;;8287021;28;19932;-74
2021/10/19 18:22:46;;;;;;;;;;;17.30;99.90;;;;;;8289315;28;19925;-73
2021/10/19 18:26:48;;;;;;;;;;;17.30;99.90;;;;;;8289476;28;19929;-74
2021/10/19 18:30:52;;;;;;;;;;;17.30;99.90;;;;;;8288964;28;20289;-73
2021/10/19 18:34:55;;;;;;;;;;;17.20;99.90;;;;;;8291673;28;19925;-73
2021/10/19 18:38:57;;;;;;;;;;;17.20;99.90;;;;;;8295049;28;19929;-74
2021/10/19 18:42:59;;;;;;;;;;;17.20;99.90;;;;;;8299522;28;20008;-74
2021/10/19 18:47:01;;;;;;;;;;;17.20;99.90;;;;;;8295155;28;20376;-73
2021/10/19 18:51:03;;;;;;;;;;;17.20;99.90;;;;;;8319428;28;19922;-74
2021/10/19 18:55:05;;;;;;;;;;;17.20;99.90;;;;;;8313801;28;20411;-73
2021/10/19 18:59:09;;;;;;;;;;;17.20;99.90;;;;;;8304532;28;19921;-74
2021/10/19 19:03:11;;;;;;;;;;;17.20;99.90;;;;;;8304987;28;19972;-73
2021/10/19 19:07:15;;;;;;;;;;;17.20;99.90;;;;;;8313590;28;19948;-73
2021/10/19 19:11:17;;;;;;;;;;;17.20;99.90;;;;;;8298008;28;19974;-74
2021/10/19 19:15:21;;;;;;;;;;;17.20;99.90;;;;;;8294702;28;19976;-74
2021/10/19 19:19:22;;;;;;;;;;;17.20;99.90;;;;;;8294665;28;19979;-74
2021/10/19 19:23:24;;;;;;;;;;;17.20;99.90;;;;;;8294268;28;19921;-73
2021/10/19 19:27:26;;;;;;;;;;;17.20;99.90;;;;;;8301179;28;19928;-73
2021/10/19 19:31:29;;;;;;;;;;;17.20;99.90;;;;;;8302258;28;19979;-74
2021/10/19 19:35:31;;;;;;;;;;;17.20;99.90;;;;;;8301265;28;20015;-73
2021/10/19 19:39:35;;;;;;;;;;;17.20;99.90;;;;;;8307828;28;19925;-73
2021/10/19 19:43:40;;;;;;;;;;;17.20;99.90;;;;;;8334674;28;19928;-73
2021/10/19 19:47:44;;;;;;;;;;;17.20;99.90;;;;;;8311565;28;19975;-73
2021/10/19 19:51:46;;;;;;;;;;;17.20;99.90;;;;;;8323584;28;20546;-73
2021/10/19 19:55:50;;;;;;;;;;;17.20;99.90;;;;;;8302972;28;20391;-73
2021/10/19 19:59:53;;;;;;;;;;;17.20;99.90;;;;;;8308157;28;19975;-73
2021/10/19 20:03:55;;;;;;;;;;;17.20;99.90;;;;;;8305752;28;20047;-73
2021/10/19 20:07:57;;;;;;;;;;;17.20;99.90;;;;;;8324661;28;20368;-74
2021/10/19 20:11:58;;;;;;;;;;;17.20;99.90;;;;;;8307255;28;20575;-74
2021/10/19 20:16:00;;;;;;;;;;;17.20;99.90;;;;;;8305709;28;19920;-73
2021/10/19 20:20:02;;;;;;;;;;;17.20;99.90;;;;;;8334628;28;20321;-72
2021/10/19 20:24:04;;;;;;;;;;;17.20;99.90;;;;;;8303237;28;20012;-72
2021/10/19 20:28:06;;;;;;;;;;;17.10;99.90;;;;;;8307509;28;19928;-72
2021/10/19 20:32:08;;;;;;;;;;;17.10;99.90;;;;;;8303248;28;19929;-72
2021/10/19 20:36:10;;;;;;;;;;;17.20;99.90;;;;;;8307750;28;19921;-71
2021/10/19 20:40:12;;;;;;;;;;;17.10;99.90;;;;;;8305529;28;19928;-71
2021/10/19 20:44:14;;;;;;;;;;;17.20;99.90;;;;;;8304435;28;19965;-71
2021/10/19 20:48:16;;;;;;;;;;;17.10;99.90;;;;;;8314010;28;20376;-72
2021/10/19 20:52:18;;;;;;;;;;;17.10;99.90;;;;;;8306996;28;19995;-72
2021/10/19 20:56:20;;;;;;;;;;;17.10;99.90;;;;;;8306258;28;19968;-72
2021/10/19 21:00:22;;;;;;;;;;;17.10;99.90;;;;;;8310559;28;19928;-71
2021/10/19 21:04:24;;;;;;;;;;;17.10;99.90;;;;;;8325223;28;19921;-71
2021/10/19 21:08:26;;;;;;;;;;;17.10;99.90;;;;;;8325528;28;20211;-71
2021/10/19 21:12:27;;;;;;;;;;;17.10;99.90;;;;;;8326154;28;20583;-72
2021/10/19 21:16:29;;;;;;;;;;;17.10;99.90;;;;;;8324216;28;20431;-72
2021/10/19 21:20:31;;;;;;;;;;;17.00;99.90;;;;;;8323561;28;20329;-71
2021/10/19 21:24:32;;;;;;;;;;;17.00;99.90;;;;;;8328898;28;19921;-72
2021/10/19 21:28:34;;;;;;;;;;;17.00;99.90;;;;;;8341900;28;20380;-72
2021/10/19 21:32:36;;;;;;;;;;;16.90;99.90;;;;;;8324112;28;20300;-71
2021/10/19 21:36:37;;;;;;;;;;;16.90;99.90;;;;;;8322096;28;19940;-72
2021/10/19 21:40:40;;;;;;;;;;;16.90;99.90;;;;;;8325961;28;19925;-71
2021/10/19 21:44:42;;;;;;;;;;;16.80;99.90;;;;;;8327757;28;20353;-71
2021/10/19 21:48:43;;;;;;;;;;;16.70;99.90;;;;;;8325891;28;20309;-71
2021/10/19 21:52:45;;;;;;;;;;;16.70;99.90;;;;;;8328898;28;21469;-71
2021/10/19 21:56:47;;;;;;;;;;;16.70;99.90;;;;;;8329649;28;19928;-71
2021/10/19 22:00:49;;;;;;;;;;;16.60;99.90;;;;;;8326511;28;19921;-71
2021/10/19 22:04:51;;;;;;;;;;;16.60;99.90;;;;;;8325522;28;20282;-71
2021/10/19 22:08:53;;;;;;;;;;;16.60;99.90;;;;;;8336253;28;20317;-71
2021/10/19 22:12:55;;;;;;;;;;;16.50;99.90;;;;;;8352968;28;19932;-72
2021/10/19 22:16:57;;;;;;;;;;;16.50;99.90;;;;;;8332939;28;19925;-72
2021/10/19 22:20:58;;;;;;;;;;;16.50;99.90;;;;;;8326140;28;19932;-71
2021/10/19 22:29:10;;;;;;;13.27;8.70;;;16.50;99.90;;;;;;8334050;28;20054;-71
2021/10/19 22:33:15;;;;;;;12.80;9.00;;;16.40;99.90;;;;;;8333028;28;20049;-72
2021/10/19 22:37:21;;;;;;;15.38;9.00;;;16.50;99.90;;;;;;8332835;28;20037;-72
2021/10/19 22:41:23;;;;;;;10.77;7.97;;;16.40;99.90;;;;;;8333669;28;20107;-71
2021/10/19 22:45:24;;;;;;;12.68;8.90;;;16.40;99.90;;;;;;8343801;28;20068;-71
2021/10/19 22:49:26;;;;;;;12.65;9.15;;;16.40;99.90;;;;;;8336306;28;20505;-72
2021/10/19 22:53:28;;;;;;;16.13;8.93;;;16.40;99.90;;;;;;8329558;28;20064;-71
2021/10/19 22:57:30;;;;;;;10.60;7.82;;;16.30;99.90;;;;;;8336318;28;20056;-71
2021/10/19 23:01:32;;;;;;;11.20;7.35;;;16.30;99.90;;;;;;8335082;28;20481;-71
2021/10/19 23:05:34;;;;;;;12.18;7.80;;;16.30;99.90;;;;;;8332384;28;20054;-71
2021/10/19 23:09:35;;;;;;;9.57;7.28;;;16.20;99.90;;;;;;8354165;28;20045;-71
2021/10/19 23:13:37;;;;;;;10.98;7.53;;;16.20;99.90;;;;;;8357653;28;20050;-72
2021/10/19 23:17:39;;;;;;;12.20;7.55;;;16.20;99.90;;;;;;8340367;28;20956;-72
2021/10/19 23:21:41;;;;;;;13.43;7.43;;;16.20;99.90;;;;;;8330061;28;20107;-72
2021/10/19 23:25:46;;;;;;;16.10;7.50;;;16.10;99.90;;;;;;8331505;28;20045;-71